createdAt,value
2023-04-24T00:01:05.352Z,101145.25
2023-04-24T00:03:36.516Z,101148.84
2023-04-24T00:06:06.560Z,101143.78
2023-04-24T00:08:36.762Z,101152.41
2023-04-24T00:11:06.946Z,101160.88
2023-04-24T00:13:37.236Z,101160.88
2023-04-24T00:16:07.615Z,101164.00
2023-04-24T00:18:37.884Z,101185.03
2023-04-24T00:21:09.059Z,101182.91
2023-04-24T00:23:39.534Z,101178.34
2023-04-24T00:26:09.836Z,101181.09
2023-04-24T00:28:40.133Z,101180.28
2023-04-24T00:31:10.587Z,101189.09
2023-04-24T00:33:40.778Z,101189.09
2023-04-24T00:36:11.224Z,101197.56
2023-04-24T00:38:41.549Z,101195.94
2023-04-24T00:41:11.964Z,101195.94
2023-04-24T00:43:43.268Z,101199.66
2023-04-24T00:46:14.657Z,101195.75
2023-04-24T00:48:45.182Z,101192.31
2023-04-24T00:51:15.704Z,101199.66
2023-04-24T00:53:46.731Z,101217.94
2023-04-24T00:56:17.186Z,101219.72
2023-04-24T00:58:48.663Z,101214.16
2023-04-24T01:01:18.570Z,101212.56
2023-04-24T01:03:48.828Z,101216.47
2023-04-24T01:06:19.592Z,101230.00
2023-04-24T01:08:51.390Z,101233.56
2023-04-24T01:11:22.280Z,101235.53
2023-04-24T01:13:52.720Z,101233.78
2023-04-24T01:16:26.269Z,101234.91
2023-04-24T01:18:57.579Z,101240.47
2023-04-24T01:21:31.351Z,101250.56
2023-04-24T01:24:01.637Z,101250.06
2023-04-24T01:26:31.802Z,101256.09
2023-04-24T01:29:02.110Z,101258.09
2023-04-24T01:31:33.552Z,101257.41
2023-04-24T01:34:04.758Z,101262.63
2023-04-24T01:36:36.703Z,101260.00
2023-04-24T01:39:07.147Z,101255.25
2023-04-24T01:41:38.011Z,101262.78
2023-04-24T01:44:08.322Z,101261.63
2023-04-24T01:46:39.207Z,101260.00
2023-04-24T01:49:10.557Z,101268.81
2023-04-24T01:51:42.098Z,101282.69
2023-04-24T01:54:13.450Z,101276.00
2023-04-24T01:56:46.440Z,101273.72
2023-04-24T01:59:16.804Z,101269.63
2023-04-24T02:01:47.585Z,101270.94
2023-04-24T02:04:18.862Z,101272.22
2023-04-24T02:06:51.055Z,101270.59
2023-04-24T02:09:21.205Z,101270.44
2023-04-24T02:11:51.264Z,101271.44
2023-04-24T02:14:21.792Z,101273.03
2023-04-24T02:16:52.239Z,101266.34
2023-04-24T02:19:22.817Z,101267.16
2023-04-24T02:21:54.377Z,101260.47
2023-04-24T02:24:24.827Z,101260.13
2023-04-24T02:26:55.127Z,101253.13
2023-04-24T02:29:25.434Z,101255.41
2023-04-24T02:31:55.760Z,101251.16
2023-04-24T02:34:26.641Z,101241.69
2023-04-24T02:36:57.608Z,101247.59
2023-04-24T02:39:29.108Z,101244.47
2023-04-24T02:41:59.383Z,101244.13
2023-04-24T02:44:29.485Z,101239.41
2023-04-24T02:46:59.611Z,101238.56
2023-04-24T02:49:30.411Z,101233.84
2023-04-24T02:52:00.673Z,101237.13
2023-04-24T02:54:31.047Z,101233.50
2023-04-24T02:57:01.412Z,101224.38
2023-04-24T02:59:49.656Z,101222.75
2023-04-24T03:05:05.866Z,101216.88
2023-04-24T03:07:55.947Z,101218.84
2023-04-24T03:10:46.893Z,101218.50
2023-04-24T03:13:36.580Z,101211.00
2023-04-24T03:19:10.596Z,101205.13
2023-04-24T03:21:49.810Z,101208.03
2023-04-24T03:27:06.339Z,101202.66
2023-04-24T03:29:57.323Z,101198.56
2023-04-24T03:32:47.841Z,101203.44
2023-04-24T03:35:24.667Z,101195.91
2023-04-24T03:37:56.443Z,101195.47
2023-04-24T03:40:46.769Z,101189.09
2023-04-24T03:43:43.118Z,101196.94
2023-04-24T03:46:14.350Z,101187.94
2023-04-24T03:49:02.950Z,101182.88
2023-04-24T03:51:37.466Z,101166.09
2023-04-24T03:54:27.916Z,101166.41
2023-04-24T03:56:58.350Z,101152.22
2023-04-24T03:59:31.066Z,101142.41
2023-04-24T04:02:21.982Z,101145.66
2023-04-24T04:04:52.872Z,101138.97
2023-04-24T04:07:23.441Z,101153.31
2023-04-24T04:09:54.045Z,101140.59
2023-04-24T04:12:26.858Z,101132.28
2023-04-24T04:14:57.117Z,101130.16
2023-04-24T04:17:45.440Z,101120.97
2023-04-24T04:20:15.862Z,101119.84
2023-04-24T04:22:46.408Z,101115.41
2023-04-24T04:25:23.031Z,101114.97
2023-04-24T04:28:11.289Z,101111.84
2023-04-24T04:31:00.873Z,101112.63
2023-04-24T04:33:31.315Z,101098.31
2023-04-24T04:36:02.594Z,101096.97
2023-04-24T04:38:35.370Z,101090.44
2023-04-24T04:44:09.946Z,101088.81
2023-04-24T04:46:41.881Z,101089.63
2023-04-24T04:49:27.861Z,101089.78
2023-04-24T04:51:59.443Z,101081.47
2023-04-24T04:54:31.274Z,101065.47
2023-04-24T04:57:04.106Z,101057.84
2023-04-24T04:59:35.574Z,101057.13
2023-04-24T05:02:24.135Z,101051.59
2023-04-24T05:05:12.687Z,101046.03
2023-04-24T05:07:43.036Z,101038.88
2023-04-24T05:10:13.938Z,101034.28
2023-04-24T05:12:46.247Z,101036.75
2023-04-24T05:15:16.845Z,101029.22
2023-04-24T05:17:47.787Z,101025.66
2023-04-24T05:20:18.333Z,101021.72
2023-04-24T05:22:48.928Z,101024.63
2023-04-24T05:25:19.668Z,101015.47
2023-04-24T05:27:58.393Z,101018.72
2023-04-24T05:30:28.653Z,101014.00
2023-04-24T05:33:00.662Z,101016.44
2023-04-24T05:35:33.789Z,101006.47
2023-04-24T05:38:04.816Z,100997.13
2023-04-24T05:40:35.285Z,100986.38
2023-04-24T05:43:05.438Z,100986.84
2023-04-24T05:45:35.911Z,100969.72
2023-04-24T05:48:07.422Z,100967.44
2023-04-24T05:50:37.964Z,100954.03
2023-04-24T05:53:10.395Z,100954.03
2023-04-24T05:55:41.608Z,100952.88
2023-04-24T05:58:30.246Z,100948.59
2023-04-24T06:01:01.935Z,100948.13
2023-04-24T06:03:33.026Z,100944.53
2023-04-24T06:06:06.575Z,100943.03
2023-04-24T06:08:38.706Z,100940.94
2023-04-24T06:11:08.855Z,100931.94
2023-04-24T06:13:39.162Z,100920.72
2023-04-24T06:16:27.576Z,100913.19
2023-04-24T06:19:04.367Z,100912.03
2023-04-24T06:21:35.164Z,100907.31
2023-04-24T06:24:05.824Z,100894.69
2023-04-24T06:26:36.275Z,100878.84
2023-04-24T06:29:06.761Z,100871.66
2023-04-24T06:31:40.572Z,100870.88
2023-04-24T06:34:11.084Z,100865.44
2023-04-24T06:36:41.564Z,100861.50
2023-04-24T06:39:12.389Z,100856.22
2023-04-24T06:41:43.365Z,100845.44
2023-04-24T06:44:22.451Z,100827.63
2023-04-24T06:46:52.827Z,100822.06
2023-04-24T06:49:23.671Z,100815.03
2023-04-24T06:51:53.904Z,100813.41
2023-04-24T06:54:24.453Z,100807.88
2023-04-24T06:56:55.546Z,100798.38
2023-04-24T06:59:25.792Z,100787.72
2023-04-24T07:01:56.025Z,100782.53
2023-04-24T07:04:28.286Z,100777.66
2023-04-24T07:07:01.552Z,100778.47
2023-04-24T07:09:32.284Z,100770.94
2023-04-24T07:12:02.574Z,100767.38
2023-04-24T07:14:32.743Z,100768.16
2023-04-24T07:17:02.820Z,100765.75
2023-04-24T07:19:33.084Z,100769.00
2023-04-24T07:22:03.381Z,100763.44
2023-04-24T07:24:35.723Z,100755.44
2023-04-24T07:27:06.748Z,100756.38
2023-04-24T07:29:36.709Z,100740.09
2023-04-24T07:32:07.246Z,100729.78
2023-04-24T07:34:37.776Z,100731.84
2023-04-24T07:37:08.226Z,100727.56
2023-04-24T07:39:38.576Z,100719.25
2023-04-24T07:42:09.035Z,100712.88
2023-04-24T07:44:39.444Z,100700.63
2023-04-24T07:47:09.751Z,100701.06
2023-04-24T07:49:40.008Z,100706.97
2023-04-24T07:52:10.409Z,100705.34
2023-04-24T07:54:40.941Z,100701.53
2023-04-24T07:57:11.769Z,100690.78
2023-04-24T07:59:42.314Z,100692.41
2023-04-24T08:02:13.226Z,100688.56
2023-04-24T08:04:44.194Z,100676.66
2023-04-24T08:07:17.402Z,100674.69
2023-04-24T08:09:47.729Z,100675.03
2023-04-24T08:12:18.418Z,100649.22
2023-04-24T08:14:48.741Z,100665.09
2023-04-24T08:17:20.596Z,100663.94
2023-04-24T08:19:54.523Z,100661.63
2023-04-24T08:22:24.732Z,100672.72
2023-04-24T08:24:55.768Z,100683.97
2023-04-24T08:27:26.482Z,100689.06
2023-04-24T08:29:59.395Z,100690.69
2023-04-24T08:32:32.998Z,100704.94
2023-04-24T08:35:03.828Z,100700.97
2023-04-24T08:37:34.368Z,100700.63
2023-04-24T08:40:10.965Z,100705.03
2023-04-24T08:42:42.195Z,100709.88
2023-04-24T08:45:15.543Z,100709.88
2023-04-24T08:47:47.402Z,100709.53
2023-04-24T08:50:18.748Z,100707.13
2023-04-24T08:52:49.311Z,100698.31
2023-04-24T08:55:21.530Z,100700.72
2023-04-24T08:57:56.831Z,100697.16
2023-04-24T09:00:27.128Z,100691.59
2023-04-24T09:02:58.335Z,100684.06
2023-04-24T09:05:29.705Z,100690.44
2023-04-24T09:08:01.055Z,100684.91
2023-04-24T09:10:33.912Z,100679.34
2023-04-24T09:13:05.476Z,100685.69
2023-04-24T09:15:36.218Z,100682.91
2023-04-24T09:18:06.820Z,100674.47
2023-04-24T09:20:39.555Z,100671.44
2023-04-24T09:23:10.122Z,100672.97
2023-04-24T09:25:40.494Z,100669.38
2023-04-24T09:28:10.674Z,100665.47
2023-04-24T09:30:41.154Z,100661.16
2023-04-24T09:33:20.202Z,100657.13
2023-04-24T09:35:55.251Z,100657.13
2023-04-24T09:38:41.839Z,100655.97
2023-04-24T09:41:16.933Z,100660.69
2023-04-24T09:43:47.229Z,100661.16
2023-04-24T09:46:17.514Z,100656.75
2023-04-24T09:48:47.889Z,100652.38
2023-04-24T09:51:18.775Z,100656.75
2023-04-24T09:53:56.318Z,100665.88
2023-04-24T09:56:29.877Z,100655.97
2023-04-24T09:59:08.529Z,100658.38
2023-04-24T10:01:39.652Z,100666.34
2023-04-24T10:04:09.634Z,100674.94
2023-04-24T10:06:40.101Z,100669.03
2023-04-24T10:09:10.494Z,100669.84
2023-04-24T10:11:41.377Z,100660.34
2023-04-24T10:14:14.714Z,100654.69
2023-04-24T10:16:46.102Z,100656.31
2023-04-24T10:19:18.566Z,100657.13
2023-04-24T10:21:52.013Z,100647.19
2023-04-24T10:24:25.704Z,100647.19
2023-04-24T10:26:58.020Z,100647.19
2023-04-24T10:29:29.529Z,100648.78
2023-04-24T10:31:59.826Z,100654.69
2023-04-24T10:34:31.494Z,100669.38
2023-04-24T10:37:02.494Z,100674.59
2023-04-24T10:39:34.296Z,100677.72
2023-04-24T10:42:04.620Z,100690.44
2023-04-24T10:44:41.232Z,100695.19
2023-04-24T10:47:20.337Z,100683.28
2023-04-24T10:49:55.296Z,100678.06
2023-04-24T10:52:26.404Z,100667.78
2023-04-24T10:54:57.895Z,100647.88
2023-04-24T10:57:34.325Z,100651.44
2023-04-24T11:00:24.893Z,100659.78
2023-04-24T11:02:57.181Z,100678.50
2023-04-24T11:05:53.717Z,100693.91
2023-04-24T11:08:34.225Z,100717.75
2023-04-24T11:11:11.842Z,100751.41
2023-04-24T11:14:09.916Z,100777.69
2023-04-24T11:16:55.746Z,100793.53
2023-04-24T11:19:30.108Z,100795.38
2023-04-24T11:22:04.629Z,100794.91
2023-04-24T11:24:44.177Z,100786.59
2023-04-24T11:27:23.673Z,100802.31
2023-04-24T11:30:04.682Z,100770.47
2023-04-24T11:32:34.866Z,100745.06
2023-04-24T11:35:09.185Z,100731.75
2023-04-24T11:37:45.279Z,100710.22
2023-04-24T11:40:18.967Z,100691.25
2023-04-24T11:42:50.905Z,100672.88
2023-04-24T11:45:25.573Z,100674.72
2023-04-24T11:47:56.012Z,100668.28
2023-04-24T11:50:29.193Z,100677.84
2023-04-24T11:53:00.292Z,100686.41
2023-04-24T11:55:31.765Z,100696.94
2023-04-24T11:58:03.452Z,100700.25
2023-04-24T12:00:37.779Z,100707.78
2023-04-24T12:03:15.549Z,100722.53
2023-04-24T12:05:47.267Z,100739.69
2023-04-24T12:08:32.124Z,100744.56
2023-04-24T12:11:04.490Z,100741.00
2023-04-24T12:13:35.250Z,100759.44
2023-04-24T12:16:09.089Z,100773.69
2023-04-24T12:18:44.663Z,100776.19
2023-04-24T12:21:27.321Z,100772.47
2023-04-24T12:24:00.191Z,100778.69
2023-04-24T12:26:33.781Z,100784.00
2023-04-24T12:29:07.650Z,100784.50
2023-04-24T12:31:38.062Z,100792.34
2023-04-24T12:34:20.516Z,100801.13
2023-04-24T12:36:51.503Z,100794.84
2023-04-24T12:39:23.174Z,100795.78
2023-04-24T12:42:00.678Z,100787.81
2023-04-24T12:44:35.252Z,100793.38
2023-04-24T12:47:05.635Z,100790.81
2023-04-24T12:49:36.357Z,100805.03
2023-04-24T12:52:07.192Z,100795.75
2023-04-24T12:54:37.768Z,100803.59
2023-04-24T12:57:08.155Z,100802.91
2023-04-24T12:59:38.323Z,100801.28
2023-04-24T13:02:08.796Z,100812.78
2023-04-24T13:04:39.489Z,100825.81
2023-04-24T13:07:09.914Z,100826.19
2023-04-24T13:09:40.191Z,100823.28
2023-04-24T13:12:11.280Z,100828.13
2023-04-24T13:14:41.928Z,100831.59
2023-04-24T13:17:12.832Z,100829.81
2023-04-24T13:19:45.162Z,100831.38
2023-04-24T13:22:16.406Z,100833.91
2023-04-24T13:24:46.284Z,100834.69
2023-04-24T13:27:16.467Z,100842.88
2023-04-24T13:29:46.983Z,100839.66
2023-04-24T13:32:17.655Z,100827.88
2023-04-24T13:34:48.193Z,100828.56
2023-04-24T13:37:18.513Z,100831.28
2023-04-24T13:43:53.001Z,100828.63
2023-04-24T13:46:23.442Z,100839.31
2023-04-24T13:48:53.904Z,100841.03
2023-04-24T13:51:24.221Z,100836.44
2023-04-24T13:53:54.517Z,100840.25
2023-04-24T13:56:25.803Z,100835.72
2023-04-24T13:58:57.624Z,100835.59
2023-04-24T14:01:28.502Z,100842.88
2023-04-24T14:03:59.324Z,100853.88
2023-04-24T14:06:29.973Z,100862.53
2023-04-24T14:09:00.662Z,100860.56
2023-04-24T14:11:31.083Z,100871.19
2023-04-24T14:14:01.427Z,100882.75
2023-04-24T14:16:32.570Z,100884.88
2023-04-24T14:19:03.128Z,100883.19
2023-04-24T14:21:33.872Z,100888.66
2023-04-24T14:24:04.525Z,100897.91
2023-04-24T14:26:34.863Z,100893.63
2023-04-24T14:29:14.115Z,100891.19
2023-04-24T14:31:45.613Z,100897.44
2023-04-24T14:34:17.774Z,100899.19
2023-04-24T14:36:48.307Z,100901.50
2023-04-24T14:39:18.768Z,100910.19
2023-04-24T14:41:49.082Z,100915.56
2023-04-24T14:44:19.337Z,100914.91
2023-04-24T14:46:49.701Z,100909.81
2023-04-24T14:49:20.144Z,100918.94
2023-04-24T14:51:50.474Z,100928.19
2023-04-24T14:54:20.968Z,100924.25
2023-04-24T14:56:51.265Z,100924.94
2023-04-24T14:59:21.643Z,100931.75
2023-04-24T15:01:56.714Z,100932.94
2023-04-24T15:04:34.580Z,100935.81
2023-04-24T15:07:04.997Z,100942.31
2023-04-24T15:09:35.987Z,100946.09
2023-04-24T15:12:05.993Z,100946.94
2023-04-24T15:14:36.271Z,100952.13
2023-04-24T15:17:06.696Z,100964.06
2023-04-24T15:19:37.424Z,100973.66
2023-04-24T15:22:07.900Z,100967.31
2023-04-24T15:24:38.161Z,100970.53
2023-04-24T15:27:08.496Z,100981.38
2023-04-24T15:29:38.771Z,100977.19
2023-04-24T15:32:10.344Z,100977.03
2023-04-24T15:34:40.893Z,100976.22
2023-04-24T15:37:11.322Z,100980.00
2023-04-24T15:39:41.644Z,100976.06
2023-04-24T15:42:11.777Z,100983.25
2023-04-24T15:44:42.796Z,100976.41
2023-04-24T15:47:16.024Z,100975.59
2023-04-24T15:49:46.254Z,100973.63
2023-04-24T15:52:17.245Z,100975.59
2023-04-24T15:54:47.598Z,100984.75
2023-04-24T15:57:18.115Z,100984.75
2023-04-24T15:59:48.898Z,100988.66
2023-04-24T16:02:23.029Z,100984.75
2023-04-24T16:04:54.573Z,100980.81
2023-04-24T16:07:25.242Z,100983.91
2023-04-24T16:09:55.508Z,100979.88
2023-04-24T16:12:30.024Z,100996.31
2023-04-24T16:15:00.833Z,100990.28
2023-04-24T16:17:31.090Z,100984.75
2023-04-24T16:20:01.414Z,100990.28
2023-04-24T16:22:31.746Z,100986.38
2023-04-24T16:25:02.219Z,100979.19
2023-04-24T16:27:32.355Z,100973.97
2023-04-24T16:30:03.052Z,100964.16
2023-04-24T16:32:33.638Z,100963.22
2023-04-24T16:35:03.982Z,100964.03
2023-04-24T16:37:34.109Z,100948.53
2023-04-24T16:40:04.337Z,100947.72
2023-04-24T16:42:35.209Z,100945.28
2023-04-24T16:45:05.792Z,100937.78
2023-04-24T16:47:36.127Z,100935.34
2023-04-24T16:50:06.865Z,100926.19
2023-04-24T16:52:38.057Z,100923.78
2023-04-24T16:55:08.940Z,100913.16
2023-04-24T16:57:39.417Z,100917.41
2023-04-24T17:00:10.482Z,100915.09
2023-04-24T17:02:40.625Z,100908.88
2023-04-24T17:05:11.472Z,100914.44
2023-04-24T17:07:41.656Z,100902.06
2023-04-24T17:10:12.153Z,100902.38
2023-04-24T17:12:42.504Z,100906.31
2023-04-24T17:15:14.966Z,100899.59
2023-04-24T17:17:46.651Z,100894.06
2023-04-24T17:20:22.741Z,100892.13
2023-04-24T17:22:54.217Z,100883.44
2023-04-24T17:25:24.457Z,100881.34
2023-04-24T17:27:54.889Z,100883.31
2023-04-24T17:30:25.139Z,100884.94
2023-04-24T17:32:55.396Z,100879.59
2023-04-24T17:35:25.597Z,100872.41
2023-04-24T17:37:55.947Z,100870.00
2023-04-24T17:40:26.292Z,100872.41
2023-04-24T17:42:57.032Z,100862.81
2023-04-24T17:45:27.253Z,100868.03
2023-04-24T17:47:58.925Z,100861.31
2023-04-24T17:50:29.280Z,100866.88
2023-04-24T17:52:59.862Z,100874.88
2023-04-24T17:55:30.165Z,100878.31
2023-04-24T17:58:00.388Z,100874.59
2023-04-24T18:00:30.602Z,100865.94
2023-04-24T18:03:04.776Z,100858.91
2023-04-24T18:05:37.524Z,100854.31
2023-04-24T18:08:10.176Z,100855.47
2023-04-24T18:10:40.500Z,100854.16
2023-04-24T18:13:12.110Z,100858.69
2023-04-24T18:15:45.525Z,100856.59
2023-04-24T18:18:15.887Z,100843.06
2023-04-24T18:20:46.135Z,100844.69
2023-04-24T18:23:16.674Z,100848.97
2023-04-24T18:25:47.045Z,100835.56
2023-04-24T18:28:17.432Z,100835.09
2023-04-24T18:30:47.757Z,100836.25
2023-04-24T18:33:18.416Z,100835.75
2023-04-24T18:35:48.877Z,100821.91
2023-04-24T18:38:18.979Z,100821.91
2023-04-24T18:40:49.047Z,100820.75
2023-04-24T18:43:19.997Z,100809.19
2023-04-24T18:45:50.491Z,100803.16
2023-04-24T18:48:20.708Z,100799.25
2023-04-24T18:50:51.477Z,100796.81
2023-04-24T18:53:21.891Z,100793.38
2023-04-24T18:55:52.087Z,100783.53
2023-04-24T18:58:22.256Z,100776.06
2023-04-24T19:00:52.929Z,100780.78
2023-04-24T19:03:23.670Z,100773.94
2023-04-24T19:05:54.034Z,100770.50
2023-04-24T19:08:24.348Z,100777.53
2023-04-24T19:10:54.726Z,100771.97
2023-04-24T19:13:25.082Z,100759.72
2023-04-24T19:15:55.376Z,100755.34
2023-04-24T19:18:25.714Z,100756.50
2023-04-24T19:20:56.127Z,100744.59
2023-04-24T19:23:26.712Z,100750.47
2023-04-24T19:25:57.054Z,100734.97
2023-04-24T19:28:27.372Z,100737.75
2023-04-24T19:31:01.115Z,100736.47
2023-04-24T19:33:31.704Z,100746.06
2023-04-24T19:36:03.157Z,100742.16
2023-04-24T19:38:33.538Z,100738.00
2023-04-24T19:41:04.311Z,100738.00
2023-04-24T19:43:35.283Z,100738.00
2023-04-24T19:46:05.723Z,100726.06
2023-04-24T19:48:37.308Z,100736.38
2023-04-24T19:51:07.691Z,100732.44
2023-04-24T19:53:38.186Z,100732.09
2023-04-24T19:56:08.525Z,100730.69
2023-04-24T19:58:38.609Z,100734.75
2023-04-24T20:01:08.818Z,100741.91
2023-04-24T20:03:39.029Z,100748.13
2023-04-24T20:06:09.393Z,100752.19
2023-04-24T20:08:42.786Z,100748.13
2023-04-24T20:11:13.278Z,100751.38
2023-04-24T20:13:43.772Z,100734.63
2023-04-24T20:16:15.318Z,100744.22
2023-04-24T20:18:47.213Z,100734.63
2023-04-24T20:21:17.744Z,100731.72
2023-04-24T20:23:48.170Z,100728.63
2023-04-24T20:26:18.548Z,100724.00
2023-04-24T20:28:49.089Z,100729.88
2023-04-24T20:31:20.094Z,100718.66
2023-04-24T20:33:50.387Z,100715.53
2023-04-24T20:36:20.531Z,100705.97
2023-04-24T20:39:09.041Z,100713.00
2023-04-24T20:41:40.980Z,100714.63
2023-04-24T20:44:29.701Z,100713.13
2023-04-24T20:47:00.091Z,100716.22
2023-04-24T20:49:30.675Z,100720.97
2023-04-24T20:52:01.715Z,100725.25
2023-04-24T20:54:31.983Z,100731.94
2023-04-24T20:57:02.577Z,100732.59
2023-04-24T20:59:33.224Z,100732.59
2023-04-24T21:02:22.101Z,100729.00
2023-04-24T21:05:11.077Z,100730.16
2023-04-24T21:08:00.102Z,100729.22
2023-04-24T21:13:15.378Z,100730.84
2023-04-24T21:15:45.531Z,100745.03
2023-04-24T21:18:16.077Z,100743.75
2023-04-24T21:20:46.479Z,100745.72
2023-04-24T21:23:16.904Z,100745.38
2023-04-24T21:25:47.600Z,100747.00
2023-04-24T21:28:17.952Z,100757.25
2023-04-24T21:30:48.372Z,100759.59
2023-04-24T21:33:18.770Z,100759.59
2023-04-24T21:35:49.053Z,100772.63
2023-04-24T21:41:07.250Z,100783.25
2023-04-24T21:43:44.839Z,100782.09
2023-04-24T21:46:16.203Z,100778.38
2023-04-24T21:48:46.688Z,100782.09
2023-04-24T21:51:35.008Z,100787.16
2023-04-24T21:54:05.335Z,100788.31
2023-04-24T21:56:35.818Z,100787.16
2023-04-24T21:59:06.312Z,100789.94
2023-04-24T22:01:37.005Z,100795.81
2023-04-24T22:04:07.961Z,100803.47
2023-04-24T22:09:23.953Z,100804.47
2023-04-24T22:11:54.861Z,100801.38
2023-04-24T22:14:43.105Z,100804.81
2023-04-24T22:17:13.580Z,100807.22
2023-04-24T22:19:45.920Z,100806.31
2023-04-24T22:22:16.369Z,100806.63
2023-04-24T22:24:46.691Z,100816.91
2023-04-24T22:27:16.893Z,100816.56
2023-04-24T22:29:47.209Z,100818.84
2023-04-24T22:32:17.622Z,100816.09
2023-04-24T22:34:48.341Z,100818.13
2023-04-24T22:37:18.621Z,100826.72
2023-04-24T22:39:49.020Z,100833.59
2023-04-24T22:42:19.335Z,100848.59
2023-04-24T22:44:49.524Z,100854.00
2023-04-24T22:47:22.168Z,100857.59
2023-04-24T22:49:52.452Z,100860.09
2023-04-24T22:52:23.506Z,100876.22
2023-04-24T22:54:54.548Z,100877.03
2023-04-24T22:58:28.641Z,100880.63
2023-04-24T23:00:59.004Z,100883.72
2023-04-24T23:03:29.467Z,100885.56
2023-04-24T23:05:59.877Z,100891.47
2023-04-24T23:08:30.248Z,100895.88
2023-04-24T23:11:00.773Z,100900.63
2023-04-24T23:13:31.097Z,100897.50
2023-04-24T23:16:01.468Z,100905.50
2023-04-24T23:18:31.905Z,100900.47
2023-04-24T23:21:04.834Z,100899.28
2023-04-24T23:23:35.743Z,100901.06
2023-04-24T23:26:06.001Z,100902.22
2023-04-24T23:28:36.201Z,100903.84
2023-04-24T23:31:06.491Z,100909.88
2023-04-24T23:33:36.782Z,100902.38
2023-04-24T23:36:08.093Z,100914.59
2023-04-24T23:38:47.188Z,100918.63
2023-04-24T23:41:20.951Z,100921.75
2023-04-24T23:43:51.507Z,100924.53
2023-04-24T23:46:22.002Z,100929.06
2023-04-24T23:48:52.164Z,100933.78
2023-04-24T23:51:22.494Z,100937.22
2023-04-24T23:53:52.726Z,100947.16
2023-04-24T23:56:26.708Z,100938.38
2023-04-24T23:58:57.071Z,100936.88
